createdAt,value
2022-10-11T00:00:43.791Z,13.40
2022-10-11T00:03:14.507Z,13.30
2022-10-11T00:05:41.921Z,13.30
2022-10-11T00:08:08.995Z,13.30
2022-10-11T00:10:35.758Z,13.30
2022-10-11T00:13:02.761Z,13.30
2022-10-11T00:15:32.196Z,13.20
2022-10-11T00:18:03.273Z,13.20
2022-10-11T00:20:34.256Z,13.10
2022-10-11T00:23:00.986Z,13.10
2022-10-11T00:25:27.852Z,13.10
2022-10-11T00:27:59.603Z,13.00
2022-10-11T00:30:26.416Z,13.00
2022-10-11T00:32:55.855Z,13.00
2022-10-11T00:35:22.668Z,13.00
2022-10-11T00:37:49.471Z,12.90
2022-10-11T00:40:19.577Z,12.90
2022-10-11T00:42:47.080Z,12.90
2022-10-11T00:45:58.848Z,12.90
2022-10-11T00:48:35.176Z,12.80
2022-10-11T00:51:06.564Z,12.80
2022-10-11T00:53:35.792Z,12.80
2022-10-11T00:56:09.564Z,12.70
2022-10-11T00:58:37.403Z,12.70
2022-10-11T01:01:04.443Z,12.70
2022-10-11T01:03:36.353Z,12.60
2022-10-11T01:06:03.826Z,12.60
2022-10-11T01:08:33.851Z,12.50
2022-10-11T01:11:01.003Z,12.50
2022-10-11T01:14:01.797Z,12.50
2022-10-11T01:16:54.809Z,12.50
2022-10-11T01:19:21.793Z,12.40
2022-10-11T01:22:17.181Z,12.40
2022-10-11T01:25:08.259Z,12.40
2022-10-11T01:27:35.005Z,12.30
2022-10-11T01:30:26.054Z,12.30
2022-10-11T01:33:17.133Z,12.20
2022-10-11T01:36:05.774Z,12.20
2022-10-11T01:38:47.063Z,12.20
2022-10-11T01:41:24.699Z,12.10
2022-10-11T01:44:01.855Z,12.10
2022-10-11T01:46:31.743Z,12.00
2022-10-11T01:49:02.318Z,12.00
2022-10-11T01:51:55.828Z,12.00
2022-10-11T01:55:08.246Z,12.00
2022-10-11T01:58:11.314Z,11.90
2022-10-11T02:01:04.361Z,11.90
2022-10-11T02:03:44.958Z,11.90
2022-10-11T02:06:25.172Z,11.80
2022-10-11T02:09:08.080Z,11.80
2022-10-11T02:11:36.412Z,11.80
2022-10-11T02:14:23.060Z,11.80
2022-10-11T02:16:55.129Z,11.80
2022-10-11T02:19:29.838Z,11.70
2022-10-11T02:22:06.035Z,11.70
2022-10-11T02:24:36.553Z,11.70
2022-10-11T02:27:07.665Z,11.70
2022-10-11T02:29:41.446Z,11.60
2022-10-11T02:32:10.179Z,11.60
2022-10-11T02:34:45.043Z,11.60
2022-10-11T02:37:32.606Z,11.60
2022-10-11T02:40:19.723Z,11.60
2022-10-11T02:42:58.769Z,11.60
2022-10-11T02:45:34.474Z,11.60
2022-10-11T02:48:07.309Z,11.50
2022-10-11T02:50:34.209Z,11.50
2022-10-11T02:53:04.719Z,11.50
2022-10-11T02:55:32.081Z,11.50
2022-10-11T02:57:59.013Z,11.50
2022-10-11T03:00:25.978Z,11.50
2022-10-11T03:02:52.810Z,11.40
2022-10-11T03:05:19.817Z,11.40
2022-10-11T03:07:46.600Z,11.40
2022-10-11T03:10:13.389Z,11.30
2022-10-11T03:12:40.242Z,11.30
2022-10-11T03:15:09.680Z,11.30
2022-10-11T03:17:37.441Z,11.30
2022-10-11T03:20:06.351Z,11.30
2022-10-11T03:22:33.182Z,11.30
2022-10-11T03:25:04.264Z,11.30
2022-10-11T03:27:33.073Z,11.20
2022-10-11T03:29:59.847Z,11.20
2022-10-11T03:32:27.048Z,11.20
2022-10-11T03:34:54.032Z,11.20
2022-10-11T03:37:20.826Z,11.20
2022-10-11T03:39:47.574Z,11.20
2022-10-11T03:42:17.300Z,11.10
2022-10-11T03:44:44.089Z,11.10
2022-10-11T03:47:11.277Z,11.10
2022-10-11T03:49:43.671Z,11.10
2022-10-11T03:52:11.029Z,11.10
2022-10-11T03:54:37.773Z,11.10
2022-10-11T03:57:07.101Z,11.10
2022-10-11T03:59:36.388Z,11.10
2022-10-11T04:02:04.452Z,11.10
2022-10-11T04:04:31.229Z,11.10
2022-10-11T04:07:00.197Z,11.10
2022-10-11T04:09:27.042Z,11.10
2022-10-11T04:11:56.123Z,11.00
2022-10-11T04:14:25.052Z,11.00
2022-10-11T04:16:51.794Z,11.00
2022-10-11T04:19:18.582Z,11.00
2022-10-11T04:21:52.116Z,11.00
2022-10-11T04:24:18.921Z,11.00
2022-10-11T04:26:45.678Z,11.00
2022-10-11T04:29:14.867Z,11.00
2022-10-11T04:31:46.779Z,11.00
2022-10-11T04:34:13.665Z,10.90
2022-10-11T04:36:45.296Z,10.90
2022-10-11T04:39:15.818Z,10.90
2022-10-11T04:41:42.583Z,10.90
2022-10-11T04:44:11.857Z,10.90
2022-10-11T04:46:38.701Z,10.90
2022-10-11T04:49:07.917Z,10.90
2022-10-11T04:51:34.728Z,10.90
2022-10-11T04:54:03.668Z,10.80
2022-10-11T04:56:33.338Z,10.80
2022-10-11T04:59:00.157Z,10.80
2022-10-11T05:01:29.710Z,10.80
2022-10-11T05:03:59.012Z,10.80
2022-10-11T05:06:25.795Z,10.80
2022-10-11T05:08:56.077Z,10.80
2022-10-11T05:11:25.240Z,10.70
2022-10-11T05:13:52.124Z,10.80
2022-10-11T05:16:19.020Z,10.70
2022-10-11T05:18:45.785Z,10.70
2022-10-11T05:21:20.460Z,10.70
2022-10-11T05:23:49.045Z,10.70
2022-10-11T05:26:16.968Z,10.70
2022-10-11T05:28:48.973Z,10.70
2022-10-11T05:31:16.803Z,10.70
2022-10-11T05:33:46.444Z,10.80
2022-10-11T05:36:16.203Z,10.70
2022-10-11T05:38:47.676Z,10.70
2022-10-11T05:41:17.870Z,10.70
2022-10-11T05:43:45.777Z,10.70
2022-10-11T05:46:13.234Z,10.70
2022-10-11T05:48:40.395Z,10.70
2022-10-11T05:51:10.945Z,10.60
2022-10-11T05:54:05.605Z,10.70
2022-10-11T05:56:32.353Z,10.70
2022-10-11T05:59:02.387Z,10.70
2022-10-11T06:01:32.119Z,10.60
2022-10-11T06:04:01.204Z,10.60
2022-10-11T06:06:30.158Z,10.60
2022-10-11T06:08:57.025Z,10.60
2022-10-11T06:11:28.146Z,10.70
2022-10-11T06:13:55.999Z,10.70
2022-10-11T06:16:22.775Z,10.70
2022-10-11T06:18:58.187Z,10.70
2022-10-11T06:21:25.436Z,10.70
2022-10-11T06:23:56.851Z,10.70
2022-10-11T06:26:27.298Z,10.70
2022-10-11T06:28:56.729Z,10.70
2022-10-11T06:31:23.651Z,10.80
2022-10-11T06:33:50.523Z,10.70
2022-10-11T06:36:17.830Z,10.70
2022-10-11T06:38:46.815Z,10.70
2022-10-11T06:41:19.857Z,10.70
2022-10-11T06:43:46.866Z,10.70
2022-10-11T06:46:13.588Z,10.70
2022-10-11T06:48:45.117Z,10.80
2022-10-11T06:51:13.968Z,10.80
2022-10-11T06:53:41.405Z,10.80
2022-10-11T06:56:40.734Z,10.80
2022-10-11T06:59:08.620Z,10.80
2022-10-11T07:01:38.073Z,10.90
2022-10-11T07:04:05.327Z,10.90
2022-10-11T07:06:35.722Z,10.90
2022-10-11T07:09:02.976Z,10.90
2022-10-11T07:11:30.028Z,11.00
2022-10-11T07:13:59.210Z,11.10
2022-10-11T07:16:26.994Z,11.10
2022-10-11T07:19:00.784Z,11.20
2022-10-11T07:21:34.561Z,11.20
2022-10-11T07:24:02.173Z,11.30
2022-10-11T07:26:33.742Z,11.30
2022-10-11T07:29:04.002Z,11.30
2022-10-11T07:31:30.921Z,11.30
2022-10-11T07:33:57.759Z,11.40
2022-10-11T07:36:27.887Z,11.40
2022-10-11T07:38:55.717Z,11.40
2022-10-11T07:41:24.768Z,11.40
2022-10-11T07:43:51.749Z,11.50
2022-10-11T07:46:18.897Z,11.50
2022-10-11T07:48:50.117Z,11.60
2022-10-11T07:51:20.285Z,11.60
2022-10-11T07:53:49.681Z,11.70
2022-10-11T07:56:23.223Z,11.70
2022-10-11T07:58:53.989Z,11.80
2022-10-11T08:01:21.227Z,11.80
2022-10-11T08:03:48.917Z,11.90
2022-10-11T08:06:19.427Z,12.00
2022-10-11T08:08:46.669Z,12.10
2022-10-11T08:11:27.787Z,12.20
2022-10-11T08:13:54.576Z,12.40
2022-10-11T08:16:24.255Z,12.60
2022-10-11T08:18:56.964Z,12.80
2022-10-11T08:21:27.570Z,13.20
2022-10-11T08:23:57.071Z,13.70
2022-10-11T08:26:26.764Z,14.50
2022-10-11T08:28:53.733Z,15.30
2022-10-11T08:31:20.745Z,15.90
2022-10-11T08:33:47.696Z,16.60
2022-10-11T08:36:17.005Z,17.10
2022-10-11T08:38:48.567Z,17.60
2022-10-11T08:41:27.654Z,18.00
2022-10-11T08:44:24.624Z,18.40
2022-10-11T08:47:00.753Z,18.80
2022-10-11T08:49:35.111Z,19.30
2022-10-11T08:52:11.070Z,19.70
2022-10-11T08:54:56.024Z,20.10
2022-10-11T08:57:26.278Z,20.20
2022-10-11T08:59:57.730Z,20.40
2022-10-11T09:03:07.917Z,20.70
2022-10-11T09:05:36.408Z,21.00
2022-10-11T09:08:22.180Z,21.20
2022-10-11T09:11:20.912Z,21.10
2022-10-11T09:14:11.104Z,21.40
2022-10-11T09:17:27.532Z,21.50
2022-10-11T09:20:06.809Z,21.60
2022-10-11T09:22:59.882Z,21.70
2022-10-11T09:25:35.494Z,21.80
2022-10-11T09:28:40.003Z,21.60
2022-10-11T09:31:11.348Z,21.60
2022-10-11T09:33:41.630Z,21.50
2022-10-11T09:36:22.866Z,21.40
2022-10-11T09:39:06.485Z,21.20
2022-10-11T09:41:52.386Z,20.90
2022-10-11T09:44:27.402Z,20.50
2022-10-11T09:46:56.715Z,20.10
2022-10-11T09:49:37.110Z,19.80
2022-10-11T09:52:11.093Z,19.30
2022-10-11T09:54:42.800Z,18.70
2022-10-11T09:57:29.713Z,18.20
2022-10-11T10:00:12.439Z,17.80
2022-10-11T10:02:48.929Z,17.50
2022-10-11T10:05:25.833Z,17.40
2022-10-11T10:08:10.663Z,17.30
2022-10-11T10:10:42.545Z,17.20
2022-10-11T10:13:29.743Z,17.10
2022-10-11T10:15:59.211Z,17.00
2022-10-11T10:18:58.224Z,16.90
2022-10-11T10:21:31.517Z,16.70
2022-10-11T10:24:03.253Z,16.50
2022-10-11T10:26:31.867Z,16.40
2022-10-11T10:29:10.343Z,16.30
2022-10-11T10:35:18.378Z,16.10
2022-10-11T10:37:52.737Z,16.10
2022-10-11T10:40:49.590Z,16.00
2022-10-11T10:43:22.575Z,15.90
2022-10-11T10:46:35.169Z,15.90
2022-10-11T10:49:48.307Z,16.00
2022-10-11T10:52:30.336Z,16.00
2022-10-11T10:55:11.880Z,16.10
2022-10-11T10:58:14.004Z,16.10
2022-10-11T11:00:50.036Z,16.10
2022-10-11T11:03:46.406Z,16.00
2022-10-11T11:06:24.441Z,16.00
2022-10-11T11:09:21.412Z,16.00
2022-10-11T11:12:18.615Z,15.90
2022-10-11T11:15:20.852Z,15.90
2022-10-11T11:18:01.007Z,15.80
2022-10-11T11:20:36.428Z,15.80
2022-10-11T11:23:23.628Z,15.70
2022-10-11T11:26:04.368Z,15.70
2022-10-11T11:28:50.510Z,15.80
2022-10-11T11:31:47.080Z,15.80
2022-10-11T11:34:22.018Z,15.80
2022-10-11T11:37:26.067Z,15.80
2022-10-11T11:40:21.788Z,15.70
2022-10-11T11:42:50.336Z,15.60
2022-10-11T11:45:26.205Z,15.60
2022-10-11T11:48:18.689Z,15.60
2022-10-11T11:51:07.684Z,15.60
2022-10-11T11:53:59.252Z,15.60
2022-10-11T11:56:32.076Z,15.50
2022-10-11T11:59:31.441Z,15.50
2022-10-11T12:02:02.733Z,15.50
2022-10-11T12:04:39.622Z,15.50
2022-10-11T12:07:18.167Z,15.50
2022-10-11T12:09:50.691Z,15.60
2022-10-11T12:12:36.213Z,15.60
2022-10-11T12:15:20.977Z,15.50
2022-10-11T12:17:56.142Z,15.50
2022-10-11T12:20:29.974Z,15.50
2022-10-11T12:23:24.915Z,15.50
2022-10-11T12:26:33.286Z,15.50
2022-10-11T12:29:17.294Z,15.50
2022-10-11T12:32:00.195Z,15.40
2022-10-11T12:34:34.257Z,15.40
2022-10-11T12:37:22.202Z,15.30
2022-10-11T12:39:53.076Z,15.30
2022-10-11T12:42:25.619Z,15.30
2022-10-11T12:45:11.943Z,15.20
2022-10-11T12:47:51.031Z,15.20
2022-10-11T12:50:43.587Z,15.20
2022-10-11T12:53:40.915Z,15.20
2022-10-11T12:56:08.222Z,15.30
2022-10-11T12:58:46.258Z,15.30
2022-10-11T13:01:23.290Z,15.30
2022-10-11T13:04:09.810Z,15.30
2022-10-11T13:06:47.540Z,15.30
2022-10-11T13:09:17.746Z,15.40
2022-10-11T13:12:14.829Z,15.50
2022-10-11T13:14:48.319Z,15.50
2022-10-11T13:17:19.911Z,15.50
2022-10-11T13:19:50.821Z,15.50
2022-10-11T13:22:27.255Z,15.50
2022-10-11T13:24:57.964Z,15.50
2022-10-11T13:27:27.353Z,15.50
2022-10-11T13:30:04.263Z,15.60
2022-10-11T13:32:36.810Z,15.60
2022-10-11T13:35:22.353Z,15.60
2022-10-11T13:37:51.971Z,15.70
2022-10-11T13:40:23.619Z,15.70
2022-10-11T13:42:52.742Z,15.80
2022-10-11T13:45:28.236Z,15.80
2022-10-11T13:47:57.982Z,15.70
2022-10-11T13:50:31.707Z,15.70
2022-10-11T13:53:02.273Z,15.60
2022-10-11T13:55:50.088Z,15.60
2022-10-11T13:58:28.406Z,15.60
2022-10-11T14:01:06.539Z,15.50
2022-10-11T14:03:46.426Z,15.50
2022-10-11T14:06:15.894Z,15.40
2022-10-11T14:08:49.393Z,15.40
2022-10-11T14:11:37.382Z,15.40
2022-10-11T14:14:43.466Z,15.30
2022-10-11T14:17:13.014Z,15.30
2022-10-11T14:19:40.460Z,15.30
2022-10-11T14:22:18.515Z,15.30
2022-10-11T14:24:48.767Z,15.30
2022-10-11T14:27:23.909Z,15.30
2022-10-11T14:30:19.827Z,15.30
2022-10-11T14:32:42.335Z,15.40
2022-10-11T14:35:24.287Z,15.30
2022-10-11T14:37:53.910Z,15.30
2022-10-11T14:40:27.379Z,15.30
2022-10-11T14:42:55.007Z,15.20
2022-10-11T14:45:21.979Z,15.20
2022-10-11T14:47:49.277Z,15.20
2022-10-11T14:50:30.165Z,15.10
2022-10-11T14:52:57.197Z,15.10
2022-10-11T14:55:24.526Z,15.10
2022-10-11T14:57:53.723Z,15.10
2022-10-11T15:00:23.681Z,15.10
2022-10-11T15:02:53.190Z,15.10
2022-10-11T15:05:21.144Z,15.10
2022-10-11T15:07:51.163Z,15.10
2022-10-11T15:10:29.243Z,15.10
2022-10-11T15:12:57.647Z,15.10
2022-10-11T15:15:26.799Z,15.00
2022-10-11T15:17:55.992Z,15.00
2022-10-11T15:20:33.924Z,15.00
2022-10-11T15:23:01.454Z,15.00
2022-10-11T15:25:31.283Z,15.00
2022-10-11T15:27:58.303Z,15.00
2022-10-11T15:30:29.887Z,15.00
2022-10-11T15:33:01.099Z,15.00
2022-10-11T15:35:28.077Z,14.90
2022-10-11T15:37:58.036Z,14.90
2022-10-11T15:40:33.972Z,14.90
2022-10-11T15:43:01.770Z,14.90
2022-10-11T15:45:29.390Z,14.90
2022-10-11T15:47:56.990Z,14.80
2022-10-11T15:50:34.785Z,14.80
2022-10-11T15:53:08.049Z,14.80
2022-10-11T15:55:38.448Z,14.70
2022-10-11T15:58:05.725Z,14.70
2022-10-11T16:00:32.542Z,14.70
2022-10-11T16:03:01.827Z,14.60
2022-10-11T16:05:35.636Z,14.50
2022-10-11T16:08:02.436Z,14.40
2022-10-11T16:10:29.237Z,14.50
2022-10-11T16:12:56.139Z,14.40
2022-10-11T16:15:28.530Z,14.30
2022-10-11T16:17:57.453Z,14.30
2022-10-11T16:20:26.744Z,14.30
2022-10-11T16:22:54.537Z,14.20
2022-10-11T16:25:24.165Z,14.10
2022-10-11T16:27:58.125Z,14.10
2022-10-11T16:30:24.930Z,14.10
2022-10-11T16:32:51.803Z,14.10
2022-10-11T16:35:19.077Z,14.10
2022-10-11T16:37:45.915Z,14.00
2022-10-11T16:40:19.615Z,14.00
2022-10-11T16:42:47.217Z,14.00
2022-10-11T16:45:15.866Z,13.90
2022-10-11T16:47:43.959Z,13.80
2022-10-11T16:50:15.934Z,13.80
2022-10-11T16:52:44.827Z,13.70
2022-10-11T16:55:11.652Z,13.70
2022-10-11T16:57:40.529Z,13.70
2022-10-11T17:00:11.901Z,13.60
2022-10-11T17:02:38.724Z,13.50
2022-10-11T17:05:05.849Z,13.50
2022-10-11T17:07:35.145Z,13.50
2022-10-11T17:10:01.875Z,13.50
2022-10-11T17:12:29.040Z,13.40
2022-10-11T17:14:56.307Z,13.40
2022-10-11T17:17:26.397Z,13.40
2022-10-11T17:19:53.131Z,13.30
2022-10-11T17:22:22.437Z,13.30
2022-10-11T17:24:54.011Z,13.30
2022-10-11T17:27:20.832Z,13.20
2022-10-11T17:29:47.604Z,13.20
2022-10-11T17:32:16.527Z,13.20
2022-10-11T17:34:45.380Z,13.10
2022-10-11T17:37:16.730Z,13.10
2022-10-11T17:39:43.541Z,13.10
2022-10-11T17:42:10.341Z,13.10
2022-10-11T17:44:39.445Z,13.00
2022-10-11T17:47:06.231Z,13.00
2022-10-11T17:49:33.003Z,13.00
2022-10-11T17:51:59.884Z,13.00
2022-10-11T17:54:26.640Z,12.90
2022-10-11T17:56:56.080Z,12.90
2022-10-11T17:59:23.037Z,12.90
2022-10-11T18:01:54.547Z,12.80
2022-10-11T18:04:22.232Z,12.80
2022-10-11T18:06:49.366Z,12.80
2022-10-11T18:09:18.298Z,12.70
2022-10-11T18:11:47.270Z,12.70
2022-10-11T18:14:14.374Z,12.70
2022-10-11T18:16:43.948Z,12.70
2022-10-11T18:19:12.961Z,12.70
2022-10-11T18:21:44.845Z,12.70
2022-10-11T18:24:16.466Z,12.60
2022-10-11T18:26:44.784Z,12.60
2022-10-11T18:29:16.095Z,12.60
2022-10-11T18:31:42.962Z,12.50
2022-10-11T18:34:12.945Z,12.50
2022-10-11T18:36:45.524Z,12.50
2022-10-11T18:39:14.390Z,12.40
2022-10-11T18:41:44.608Z,12.40
2022-10-11T18:44:14.410Z,12.40
2022-10-11T18:46:41.345Z,12.30
2022-10-11T18:49:08.623Z,12.30
2022-10-11T18:51:38.926Z,12.30
2022-10-11T18:54:07.478Z,12.20
2022-10-11T18:56:36.480Z,12.20
2022-10-11T18:59:09.030Z,12.20
2022-10-11T19:01:38.575Z,12.20
2022-10-11T19:04:09.744Z,12.20
2022-10-11T19:06:40.863Z,12.10
2022-10-11T19:09:10.937Z,12.10
2022-10-11T19:11:38.674Z,12.00
2022-10-11T19:14:11.318Z,12.00
2022-10-11T19:16:41.301Z,12.00
2022-10-11T19:19:11.481Z,12.00
2022-10-11T19:21:41.312Z,11.90
2022-10-11T19:24:08.848Z,11.90
2022-10-11T19:26:38.230Z,11.90
2022-10-11T19:29:11.571Z,11.90
2022-10-11T19:31:42.929Z,11.90
2022-10-11T19:34:14.877Z,11.90
2022-10-11T19:36:44.191Z,11.80
2022-10-11T19:39:18.120Z,11.80
2022-10-11T19:41:45.339Z,11.80
2022-10-11T19:44:13.415Z,11.80
2022-10-11T19:46:51.945Z,11.80
2022-10-11T19:49:24.924Z,11.70
2022-10-11T19:51:56.582Z,11.70
2022-10-11T19:54:24.013Z,11.60
2022-10-11T19:56:50.890Z,11.70
2022-10-11T19:59:18.186Z,11.60
2022-10-11T20:01:53.422Z,11.60
2022-10-11T20:04:50.973Z,11.60
2022-10-11T20:07:10.414Z,11.60
2022-10-11T20:09:37.198Z,11.50
2022-10-11T20:12:04.108Z,11.50
2022-10-11T20:14:30.887Z,11.50
2022-10-11T20:17:02.430Z,11.50
2022-10-11T20:19:31.163Z,11.50
2022-10-11T20:21:59.011Z,11.40
2022-10-11T20:24:28.814Z,11.40
2022-10-11T20:26:55.594Z,11.40
2022-10-11T20:29:25.365Z,11.30
2022-10-11T20:31:56.217Z,11.30
2022-10-11T20:34:23.341Z,11.30
2022-10-11T20:36:54.779Z,11.30
2022-10-11T20:39:23.792Z,11.30
2022-10-11T20:41:50.652Z,11.20
2022-10-11T20:44:19.848Z,11.20
2022-10-11T20:46:46.659Z,11.20
2022-10-11T20:49:20.629Z,11.10
2022-10-11T20:51:49.766Z,11.10
2022-10-11T20:54:16.984Z,11.10
2022-10-11T20:56:43.803Z,11.10
2022-10-11T20:59:13.128Z,11.10
2022-10-11T21:01:41.797Z,11.10
2022-10-11T21:04:17.207Z,11.00
2022-10-11T21:06:44.096Z,11.00
2022-10-11T21:09:14.078Z,11.00
2022-10-11T21:11:45.679Z,11.00
2022-10-11T21:14:12.507Z,11.00
2022-10-11T21:16:39.556Z,10.90
2022-10-11T21:19:16.852Z,10.90
2022-10-11T21:21:49.710Z,10.90
2022-10-11T21:24:21.756Z,10.90
2022-10-11T21:26:50.950Z,10.80
2022-10-11T21:29:23.254Z,10.80
2022-10-11T21:31:50.100Z,10.80
2022-10-11T21:34:19.196Z,10.80
2022-10-11T21:36:46.097Z,10.80
2022-10-11T21:39:12.976Z,10.80
2022-10-11T21:41:42.018Z,10.80
2022-10-11T21:44:10.965Z,10.80
2022-10-11T21:47:04.678Z,10.70
2022-10-11T21:49:26.751Z,10.70
2022-10-11T21:51:55.961Z,10.70
2022-10-11T21:54:25.011Z,10.70
2022-10-11T21:56:51.737Z,10.70
2022-10-11T21:59:20.757Z,10.70
2022-10-11T22:01:47.556Z,10.70
2022-10-11T22:04:16.500Z,10.60
2022-10-11T22:06:47.547Z,10.60
2022-10-11T22:09:16.915Z,10.60
2022-10-11T22:11:48.185Z,10.60
2022-10-11T22:14:18.573Z,10.50
2022-10-11T22:16:48.230Z,10.50
2022-10-11T22:19:17.087Z,10.50
2022-10-11T22:21:45.168Z,10.50
2022-10-11T22:24:12.595Z,10.50
2022-10-11T22:26:41.992Z,10.50
2022-10-11T22:29:08.972Z,10.40
2022-10-11T22:31:35.874Z,10.40
2022-10-11T22:34:07.358Z,10.40
2022-10-11T22:36:36.779Z,10.40
2022-10-11T22:39:08.133Z,10.40
2022-10-11T22:41:35.981Z,10.30
2022-10-11T22:44:02.770Z,10.30
2022-10-11T22:46:29.610Z,10.30
2022-10-11T22:48:56.553Z,10.30
2022-10-11T22:51:23.282Z,10.30
2022-10-11T22:53:50.043Z,10.30
2022-10-11T22:56:19.989Z,10.20
2022-10-11T22:58:51.377Z,10.20
2022-10-11T23:01:18.154Z,10.20
2022-10-11T23:03:49.239Z,10.20
2022-10-11T23:06:16.369Z,10.10
2022-10-11T23:08:44.312Z,10.10
2022-10-11T23:11:12.328Z,10.10
2022-10-11T23:13:39.114Z,10.10
2022-10-11T23:16:10.668Z,10.00
2022-10-11T23:18:39.898Z,10.00
2022-10-11T23:21:09.368Z,10.00
2022-10-11T23:23:39.634Z,10.00
2022-10-11T23:26:12.846Z,9.90
2022-10-11T23:28:43.337Z,9.90
2022-10-11T23:31:14.038Z,9.90
2022-10-11T23:33:46.819Z,9.90
2022-10-11T23:36:22.520Z,9.90
2022-10-11T23:38:58.787Z,9.90
2022-10-11T23:41:28.123Z,9.90
2022-10-11T23:43:57.304Z,9.80
2022-10-11T23:46:24.320Z,9.80
2022-10-11T23:48:53.575Z,9.70
2022-10-11T23:51:20.384Z,9.70
2022-10-11T23:53:47.166Z,9.70
2022-10-11T23:56:16.231Z,9.70
2022-10-11T23:58:42.940Z,9.70
